KJAX/JAX METAR and TAF weather

Enter ICAO airport designator
Station Type Date Time Source
KJAX METAR 2018/12/11 17:56 UTC NOAA

KJAX 111756Z VRB05KT 10SM CLR 12/02 A3027 RMK AO2 SLP250 60000 T01220022 10122 20061 58014


Station Type Date Time Source
KJAX Decoded METAR 2018/12/11 17:56 UTC NOAA

JACKSONVILLE INTERNATIONAL, FL, United States (KJAX) 30-30N 81-42W 7M
Dec 11, 2018 - 12:56 PM EST / 2018.12.11 1756 UTC
Wind: Variable at 6 MPH (5 KT):0
Visibility: 10 mile(s):0
Sky conditions: clear
Temperature: 54.0 F (12.2 C)
Dew Point: 36.0 F (2.2 C)
Relative Humidity: 50%
Pressure (altimeter): 30.27 in. Hg (1025 hPa)
Pressure tendency: 0.04 inches (1.4 hPa) lower than three hours ago
ob: KJAX 111756Z VRB05KT 10SM CLR 12/02 A3027 RMK AO2 SLP250 60000 T01220022 10122 20061 58014
cycle: 18

Station Type Date Time Source
KJAX TAF 2018/12/11 18:22 UTC NOAA

TAF KJAX 111720Z 1118/1218 32011G17KT P6SM SKC
FM112300 27002KT P6SM SKC


Example: see airport list